Time;durP1;ratioP1;P1;durP2;ratioP2;P2;SDS_P1;SDS_P2;PMS_P1;PMS_P2;Temp;Humidity;BMP_temperature;BMP_pressure;BME280_temperature;BME280_humidity;BME280_pressure;Samples;Min_cycle;Max_cycle;Signal;HPM_P1;HPM_P2
2022/08/28 00:00:25;;;;;;;4.45;2.22;;;19.40;84.30;;;18.41;100.00;95861.78;5023022;28;20049;-65
2022/08/28 00:02:52;;;;;;;2.72;2.05;;;19.40;84.10;;;18.41;100.00;95861.78;5007405;28;20022;-65
2022/08/28 00:05:18;;;;;;;3.85;2.38;;;19.40;84.10;;;18.43;100.00;95870.31;5023817;28;20518;-65
2022/08/28 00:07:44;;;;;;;2.97;2.03;;;19.40;84.00;;;18.42;100.00;95871.38;5024216;28;20037;-65
2022/08/28 00:10:10;;;;;;;3.22;2.17;;;19.40;84.20;;;18.40;100.00;95868.97;5009166;28;20129;-65
2022/08/28 00:12:36;;;;;;;2.30;2.10;;;19.40;84.30;;;18.38;100.00;95864.94;4991451;28;20033;-65
2022/08/28 00:15:05;;;;;;;2.58;2.15;;;19.30;84.50;;;18.39;100.00;95869.22;4998678;28;20492;-65
2022/08/28 00:17:31;;;;;;;3.33;2.47;;;19.30;84.60;;;18.38;100.00;95865.75;5023290;28;20030;-65
2022/08/28 00:19:57;;;;;;;3.03;2.45;;;19.30;84.70;;;18.38;100.00;95863.06;5006946;28;20068;-65
2022/08/28 00:22:22;;;;;;;3.00;2.00;;;19.30;85.00;;;18.39;100.00;95861.22;5024080;28;20515;-65
2022/08/28 00:24:48;;;;;;;2.65;2.10;;;19.30;84.70;;;18.39;100.00;95861.22;5010775;28;20548;-65
2022/08/28 00:29:58;;;;;;;3.15;2.00;;;19.40;84.60;;;18.39;100.00;95862.03;4997953;28;20088;-65
2022/08/28 00:32:24;;;;;;;2.58;1.90;;;19.30;84.70;;;18.41;100.00;95853.78;5023727;28;20037;-65
2022/08/28 00:34:50;;;;;;;3.20;2.20;;;19.40;84.70;;;18.38;100.00;95857.75;5023224;28;20086;-65
2022/08/28 00:37:16;;;;;;;3.05;2.35;;;19.30;84.60;;;18.37;100.00;95858.81;4974994;28;20048;-65
2022/08/28 00:39:42;;;;;;;3.17;2.55;;;19.30;84.70;;;18.38;100.00;95859.59;4987695;28;20027;-65
2022/08/28 00:42:09;;;;;;;4.10;2.50;;;19.30;85.00;;;18.38;100.00;95859.59;4992098;28;20135;-65
2022/08/28 00:44:35;;;;;;;2.75;2.20;;;19.40;84.80;;;18.35;100.00;95855.59;4987933;28;20049;-65
2022/08/28 00:47:01;;;;;;;2.75;2.05;;;19.30;84.90;;;18.33;100.00;95861.16;4990491;28;20042;-65
2022/08/28 00:49:30;;;;;;;3.38;2.20;;;19.20;84.70;;;18.31;100.00;95855.22;5021235;28;20113;-65
2022/08/28 00:52:07;;;;;;;3.15;2.60;;;19.20;85.00;;;18.28;100.00;95860.25;4991678;28;20497;-65
2022/08/28 00:54:52;;;;;;;2.42;2.22;;;19.20;84.90;;;18.27;100.00;95856.78;5022176;28;20071;-65
2022/08/28 00:57:22;;;;;;;3.42;2.60;;;19.20;84.90;;;18.25;100.00;95866.88;5021825;28;20038;-65
2022/08/28 00:59:47;;;;;;;3.63;2.72;;;19.10;85.10;;;18.24;100.00;95865.25;5008685;28;20074;-65
2022/08/28 01:02:13;;;;;;;2.47;2.00;;;19.20;85.20;;;18.22;100.00;95859.38;4999711;28;20061;-65
2022/08/28 01:04:39;;;;;;;2.60;2.40;;;19.20;85.30;;;18.20;100.00;95856.13;5002810;28;20066;-65
2022/08/28 01:07:08;;;;;;;3.95;2.75;;;19.10;85.40;;;18.19;100.00;95857.19;5030188;28;20128;-65
2022/08/28 01:09:36;;;;;;;3.05;2.58;;;19.10;85.70;;;18.19;100.00;95857.19;5022842;28;20861;-65
2022/08/28 01:12:13;;;;;;;3.30;2.80;;;19.10;85.60;;;18.17;100.00;95856.63;5011079;28;20033;-65
2022/08/28 01:14:39;;;;;;;3.83;2.92;;;19.00;85.80;;;18.13;100.00;95857.38;5002916;28;20041;-64
2022/08/28 01:17:05;;;;;;;3.58;2.80;;;19.00;86.20;;;18.11;100.00;95854.94;4995720;28;20031;-65
2022/08/28 01:19:41;;;;;;;3.70;3.00;;;19.10;86.10;;;18.11;100.00;95844.28;4999969;28;20141;-65
2022/08/28 01:22:31;;;;;;;4.72;3.17;;;19.10;86.10;;;18.13;100.00;95846.72;4996750;28;20084;-65
2022/08/28 01:24:59;;;;;;;4.28;3.60;;;19.10;86.00;;;18.09;100.00;95850.88;4981080;28;20030;-65
2022/08/28 01:27:25;;;;;;;4.80;3.47;;;19.10;86.00;;;18.08;100.00;95844.75;4972611;28;20041;-65
2022/08/28 01:29:51;;;;;;;4.25;3.70;;;19.10;86.30;;;18.10;100.00;95852.50;4986626;28;20117;-65
2022/08/28 01:32:39;;;;;;;4.75;3.70;;;19.10;86.10;;;18.12;100.00;95850.44;5010066;28;20044;-65
2022/08/28 01:35:12;;;;;;;4.43;3.80;;;19.10;86.00;;;18.11;100.00;95854.94;4991238;28;20386;-65
2022/08/28 01:37:38;;;;;;;4.95;3.72;;;19.10;86.10;;;18.09;100.00;95849.03;5014738;28;20685;-65
2022/08/28 01:40:05;;;;;;;4.82;4.07;;;19.10;86.20;;;18.10;100.00;95847.97;5000898;28;20042;-65
2022/08/28 01:42:39;;;;;;;4.30;3.90;;;19.10;86.00;;;18.11;100.00;95843.50;5005318;28;20167;-65
2022/08/28 01:45:09;;;;;;;4.50;3.67;;;19.20;86.10;;;18.11;100.00;95849.63;5011766;28;20048;-65
2022/08/28 01:47:36;;;;;;;;;;;19.20;86.10;;;18.12;100.00;95853.91;4979838;28;20049;-65
2022/08/28 01:50:04;;;;;;;5.40;4.03;;;19.20;86.00;;;18.12;100.00;95855.75;5000015;28;19921;-65
2022/08/28 01:52:30;;;;;;;4.93;3.65;;;19.20;86.20;;;18.13;100.00;95850.19;4968344;28;20037;-65
2022/08/28 01:54:56;;;;;;;5.72;4.03;;;19.30;85.90;;;18.14;100.00;95849.13;5003673;28;20053;-65
2022/08/28 01:57:22;;;;;;;5.20;4.30;;;19.30;85.80;;;18.18;100.00;95844.13;5003741;28;20041;-65
2022/08/28 01:59:49;;;;;;;4.88;4.25;;;19.30;85.70;;;18.19;100.00;95845.72;4980912;28;20037;-65
2022/08/28 02:02:15;;;;;;;5.15;4.50;;;19.30;85.50;;;18.20;100.00;95850.81;5005140;28;22583;-65
2022/08/28 02:04:41;;;;;;;7.30;4.57;;;19.40;85.70;;;18.22;100.00;95847.91;5018663;28;20525;-65
2022/08/28 02:07:07;;;;;;;5.30;4.68;;;19.30;85.70;;;18.21;100.00;95849.78;5021642;28;20042;-65
2022/08/28 02:09:32;;;;;;;5.28;4.78;;;19.30;85.70;;;18.23;100.00;95847.66;4998417;28;20045;-65
2022/08/28 02:11:58;;;;;;;5.35;4.82;;;19.40;85.60;;;18.23;100.00;95853.00;4998060;28;20477;-65
2022/08/28 02:14:24;;;;;;;5.63;4.25;;;19.30;85.60;;;18.23;100.00;95846.84;5017495;28;20124;-65
2022/08/28 02:16:50;;;;;;;5.05;4.35;;;19.40;85.70;;;18.23;100.00;95850.31;5037863;28;20033;-65
2022/08/28 02:19:15;;;;;;;5.93;4.43;;;19.40;85.70;;;18.25;100.00;95845.56;4989289;28;20338;-65
2022/08/28 02:21:41;;;;;;;5.25;4.47;;;19.40;85.60;;;18.26;100.00;95857.03;4990340;28;20045;-65
2022/08/28 02:24:07;;;;;;;4.18;3.75;;;19.40;85.70;;;18.26;100.00;95852.50;5010169;28;20041;-65
2022/08/28 02:26:33;;;;;;;4.25;3.47;;;19.40;85.70;;;18.27;100.00;95859.44;5005045;28;20057;-65
2022/08/28 02:28:59;;;;;;;4.15;3.40;;;19.40;85.70;;;18.28;100.00;95846.94;5012086;28;20038;-65
2022/08/28 02:31:26;;;;;;;5.20;4.00;;;19.40;85.70;;;18.26;100.00;95849.84;5002005;28;20991;-65
2022/08/28 02:33:51;;;;;;;4.78;3.70;;;19.40;85.70;;;18.28;100.00;95845.06;5019044;28;20029;-65
2022/08/28 02:36:17;;;;;;;4.38;3.38;;;19.50;85.60;;;18.30;100.00;95852.81;5018434;28;20052;-65
2022/08/28 02:38:44;;;;;;;5.32;3.58;;;19.40;85.60;;;18.31;100.00;95849.91;5008068;28;20497;-65
2022/08/28 02:41:10;;;;;;;4.60;3.83;;;19.50;85.50;;;18.30;100.00;95853.63;5003080;28;20128;-65
2022/08/28 02:43:35;;;;;;;5.00;3.35;;;19.40;85.50;;;18.28;100.00;95852.25;5004121;28;20501;-65
2022/08/28 02:46:02;;;;;;;4.82;3.63;;;19.40;85.60;;;18.30;100.00;95858.13;4984139;28;20038;-65
2022/08/28 02:48:33;;;;;;;5.10;3.50;;;19.40;85.60;;;18.30;100.00;95853.63;5002633;28;20026;-65
2022/08/28 02:51:12;;;;;;;5.15;3.40;;;19.50;85.70;;;18.30;100.00;95852.81;5006287;28;20176;-65
2022/08/28 02:53:38;;;;;;;3.70;3.40;;;19.50;85.60;;;18.29;100.00;95852.00;4993293;28;20030;-65
2022/08/28 02:56:04;;;;;;;5.38;3.67;;;19.50;85.70;;;18.30;100.00;95852.81;4992203;28;20109;-65
2022/08/28 02:58:31;;;;;;;3.90;3.40;;;19.40;85.70;;;18.30;100.00;95853.63;5000616;28;20029;-65
2022/08/28 03:01:00;;;;;;;4.50;3.58;;;19.40;85.80;;;18.30;100.00;95847.50;5037210;28;20030;-65
2022/08/28 03:03:28;;;;;;;4.00;3.60;;;19.40;85.90;;;18.29;100.00;95846.69;4989687;28;20061;-65
2022/08/28 03:05:54;;;;;;;4.13;3.72;;;19.40;86.10;;;18.29;100.00;95846.69;5032947;28;20133;-65
2022/08/28 03:08:21;;;;;;;5.95;3.90;;;19.40;85.90;;;18.31;100.00;95843.78;5012179;28;20500;-65
2022/08/28 03:10:47;;;;;;;4.10;3.70;;;19.50;85.90;;;18.32;100.00;95848.84;5003653;28;20501;-65
2022/08/28 03:13:12;;;;;;;5.35;3.92;;;19.50;85.80;;;18.31;100.00;95844.59;5011030;28;20069;-65
2022/08/28 03:15:42;;;;;;;5.25;4.03;;;19.40;85.70;;;18.30;100.00;95839.50;4984453;28;20029;-65
2022/08/28 03:18:08;;;;;;;6.82;4.25;;;19.40;85.80;;;18.31;100.00;95849.91;4990249;28;20066;-65
2022/08/28 03:20:34;;;;;;;4.88;3.85;;;19.40;85.80;;;18.29;100.00;95844.03;5008669;28;20121;-65
2022/08/28 03:25:44;;;;;;;4.20;3.78;;;19.40;85.70;;;18.25;100.00;95845.56;5016918;28;20045;-65
2022/08/28 03:28:10;;;;;;;4.70;4.20;;;19.30;86.10;;;18.25;100.00;95844.75;5019080;28;20421;-65
2022/08/28 03:30:36;;;;;;;4.82;4.38;;;19.40;86.00;;;18.24;100.00;95843.16;4992210;28;20041;-65
2022/08/28 03:33:02;;;;;;;5.03;4.32;;;19.40;86.00;;;18.23;100.00;95847.66;4978527;28;20125;-65
2022/08/28 03:35:28;;;;;;;5.70;4.40;;;19.30;86.20;;;18.23;100.00;95852.19;5015260;28;20149;-65
2022/08/28 03:37:53;;;;;;;4.25;3.85;;;19.30;86.30;;;18.23;100.00;95853.00;5023552;28;20025;-65
2022/08/28 03:40:20;;;;;;;5.60;4.18;;;19.40;86.10;;;18.25;100.00;95853.56;4991425;28;20497;-65
2022/08/28 03:42:46;;;;;;;4.82;4.07;;;19.40;86.10;;;18.24;100.00;95862.59;4988865;28;20038;-65
2022/08/28 03:45:12;;;;;;;6.05;4.53;;;19.30;86.20;;;18.23;100.00;95855.66;5005840;28;20052;-65
2022/08/28 03:47:40;;;;;;;7.30;4.30;;;19.40;86.30;;;18.24;100.00;95859.94;4986193;28;20091;-65
2022/08/28 03:50:07;;;;;;;6.25;4.32;;;19.40;86.30;;;18.26;100.00;95851.69;5018720;28;20037;-65
2022/08/28 03:52:33;;;;;;;6.03;4.20;;;19.40;86.30;;;18.26;100.00;95851.69;4988047;28;20025;-65
2022/08/28 03:54:59;;;;;;;4.97;4.47;;;19.40;86.00;;;18.27;100.00;95856.78;5022223;28;20087;-65
2022/08/28 03:57:24;;;;;;;5.10;4.53;;;19.40;86.10;;;18.27;100.00;95864.75;5018761;28;20585;-65
2022/08/28 03:59:51;;;;;;;5.15;4.65;;;19.40;86.00;;;18.28;100.00;95860.25;4988766;28;21123;-65
2022/08/28 04:02:19;;;;;;;4.90;4.40;;;19.50;85.90;;;18.30;100.00;95863.47;5014571;28;20168;-65
2022/08/28 04:04:46;;;;;;;5.28;4.78;;;19.50;85.80;;;18.31;100.00;95865.88;5004867;28;20057;-65
2022/08/28 04:07:12;;;;;;;6.07;4.85;;;19.40;86.00;;;18.31;100.00;95865.88;4988568;28;20694;-65
2022/08/28 04:09:38;;;;;;;7.78;5.47;;;19.50;86.00;;;18.31;100.00;95859.75;5021790;28;20045;-65
2022/08/28 04:12:04;;;;;;;6.78;5.50;;;19.50;86.00;;;18.31;100.00;95865.88;5003607;28;20099;-65
2022/08/28 04:14:29;;;;;;;6.38;5.55;;;19.50;86.00;;;18.31;100.00;95863.22;4979088;28;20147;-65
2022/08/28 04:16:55;;;;;;;7.68;6.40;;;19.50;86.00;;;18.31;100.00;95865.06;5008871;28;20036;-65
2022/08/28 04:19:21;;;;;;;7.47;6.72;;;19.50;85.90;;;18.30;100.00;95866.94;5003245;28;20038;-65
2022/08/28 04:21:46;;;;;;;7.43;6.72;;;19.40;86.10;;;18.31;100.00;95870.41;5017633;28;20042;-65
2022/08/28 04:24:12;;;;;;;8.82;7.03;;;19.50;86.00;;;18.32;100.00;95866.69;5005003;28;20107;-65
2022/08/28 04:26:38;;;;;;;8.93;7.03;;;19.50;86.00;;;18.33;100.00;95863.81;5037784;28;20555;-65
2022/08/28 04:29:04;;;;;;;9.15;6.95;;;19.50;86.10;;;18.34;100.00;95865.44;4980049;28;20030;-65
2022/08/28 04:31:30;;;;;;;7.78;7.03;;;19.40;86.10;;;18.33;100.00;95863.81;5003509;28;20033;-65
2022/08/28 04:33:55;;;;;;;11.20;7.90;;;19.50;86.30;;;18.32;100.00;95859.50;5003728;28;20030;-65
2022/08/28 04:36:21;;;;;;;10.45;8.68;;;19.50;86.20;;;18.34;100.00;95869.94;5004516;28;20584;-65
2022/08/28 04:38:49;;;;;;;11.30;8.88;;;19.50;86.20;;;18.34;100.00;95864.63;4998648;28;20042;-65
2022/08/28 04:41:15;;;;;;;12.00;9.70;;;19.50;86.00;;;18.33;100.00;95874.47;4980578;28;20509;-65
2022/08/28 04:43:41;;;;;;;11.98;10.10;;;19.50;86.10;;;18.34;100.00;95873.41;5022274;28;20171;-65
2022/08/28 04:46:12;;;;;;;11.50;9.85;;;19.50;86.10;;;18.35;100.00;95877.69;5006238;28;20037;-65
2022/08/28 04:48:38;;;;;;;12.18;10.07;;;19.50;86.10;;;18.36;100.00;95867.84;4995168;28;20072;-65
2022/08/28 04:51:05;;;;;;;10.93;9.77;;;19.60;86.10;;;18.39;100.00;95871.88;4991890;28;20058;-65
2022/08/28 04:53:31;;;;;;;12.75;10.18;;;19.60;86.10;;;18.40;100.00;95873.47;4991377;28;20041;-65
2022/08/28 04:55:58;;;;;;;14.75;10.25;;;19.60;86.00;;;18.41;100.00;95875.09;5016857;28;20041;-66
2022/08/28 04:58:24;;;;;;;12.73;10.20;;;19.60;86.10;;;18.41;100.00;95881.22;4999732;28;20061;-65
2022/08/28 05:00:50;;;;;;;15.73;11.10;;;19.60;86.10;;;18.42;100.00;95877.50;5007474;28;20041;-65
2022/08/28 05:03:16;;;;;;;12.85;11.23;;;19.60;86.20;;;18.44;100.00;95885.25;4988480;28;20042;-65
2022/08/28 05:05:51;;;;;;;13.55;11.40;;;19.60;86.20;;;18.45;100.00;95881.53;4999488;28;20029;-65
2022/08/28 05:08:18;;;;;;;13.93;11.50;;;19.60;86.20;;;18.44;100.00;95886.06;5003929;28;20099;-65
2022/08/28 05:10:45;;;;;;;15.15;11.73;;;19.60;86.30;;;18.45;100.00;95893.00;4988912;28;20048;-65
2022/08/28 05:13:11;;;;;;;19.52;11.00;;;19.70;86.20;;;18.46;100.00;95889.28;5007678;28;20106;-65
2022/08/28 05:15:43;;;;;;;14.95;12.35;;;19.70;86.10;;;18.49;100.00;95890.66;5002232;28;20472;-65
2022/08/28 05:18:09;;;;;;;16.23;12.48;;;19.70;86.10;;;18.49;100.00;95893.31;5001135;28;20527;-65
2022/08/28 05:20:36;;;;;;;20.55;13.05;;;19.80;86.10;;;18.49;100.00;95893.31;4988516;28;20041;-65
2022/08/28 05:23:03;;;;;;;17.55;13.43;;;19.70;86.10;;;18.50;100.00;95900.25;4972412;28;20107;-65
2022/08/28 05:25:31;;;;;;;18.25;13.50;;;19.80;86.20;;;18.51;100.00;95896.53;4989591;28;20456;-65
2022/08/28 05:27:57;;;;;;;15.82;13.48;;;19.80;86.10;;;18.53;100.00;95894.44;5004803;28;20191;-67
2022/08/28 05:30:22;;;;;;;18.10;14.38;;;19.80;86.00;;;18.55;100.00;95903.00;5000852;28;20034;-65
2022/08/28 05:32:48;;;;;;;15.25;13.60;;;19.80;86.00;;;18.59;100.00;95898.81;5001629;28;20167;-65
2022/08/28 05:35:14;;;;;;;19.38;14.57;;;19.90;86.00;;;18.60;100.00;95895.91;5001310;28;20045;-64
2022/08/28 05:37:40;;;;;;;18.52;14.18;;;19.90;85.90;;;18.64;100.00;95901.56;5015857;28;20041;-64
2022/08/28 05:40:06;;;;;;;19.20;15.75;;;20.00;85.90;;;18.65;100.00;95903.19;5002268;28;21205;-64
2022/08/28 05:42:33;;;;;;;19.05;15.50;;;20.00;85.90;;;18.67;100.00;95909.88;5007363;28;20035;-68
2022/08/28 05:44:58;;;;;;;18.98;15.07;;;20.00;85.90;;;18.68;100.00;95908.03;5024100;28;20148;-64
2022/08/28 05:47:24;;;;;;;21.77;16.25;;;20.00;85.90;;;18.71;100.00;95907.53;5004677;28;20096;-71
2022/08/28 05:49:50;;;;;;;22.70;15.88;;;20.00;85.70;;;18.72;100.00;95905.69;5019563;28;20049;-65
2022/08/28 05:52:16;;;;;;;20.33;17.50;;;20.10;85.90;;;18.75;100.00;95910.50;5022818;28;20354;-64
2022/08/28 05:54:42;;;;;;;18.45;15.32;;;20.10;85.70;;;18.76;100.00;95914.78;5023196;28;20025;-66
2022/08/28 05:57:08;;;;;;;18.83;16.30;;;20.10;85.70;;;18.78;100.00;95913.50;5026608;28;20124;-65
2022/08/28 05:59:33;;;;;;;21.35;16.90;;;20.10;85.60;;;18.80;100.00;95911.41;5003690;28;20029;-70
2022/08/28 06:01:59;;;;;;;18.77;15.60;;;20.10;85.60;;;18.83;100.00;95913.59;5022312;28;20125;-70
2022/08/28 06:04:26;;;;;;;19.48;15.98;;;20.10;85.40;;;18.85;100.00;95913.34;5017336;28;20038;-64
2022/08/28 06:06:52;;;;;;;20.58;16.83;;;20.20;85.40;;;18.89;100.00;95923.25;5004975;28;20042;-65
2022/08/28 06:09:25;;;;;;;22.50;16.55;;;20.20;85.40;;;18.91;100.00;95917.69;5016900;28;20489;-64
2022/08/28 06:11:53;;;;;;;19.40;16.83;;;20.20;85.40;;;18.94;100.00;95918.00;5023423;28;20959;-64
2022/08/28 06:14:19;;;;;;;19.15;16.70;;;20.30;85.20;;;18.97;100.00;95920.16;5019358;28;20457;-64
2022/08/28 06:16:48;;;;;;;21.08;16.23;;;20.40;85.20;;;19.03;100.00;95920.25;5006601;28;20030;-65
2022/08/28 06:19:15;;;;;;;22.10;17.38;;;20.40;85.10;;;19.07;100.00;95921.38;5016604;28;20092;-65
2022/08/28 06:21:42;;;;;;;21.90;17.17;;;20.50;84.80;;;19.14;100.00;95917.47;5019921;28;20033;-65
2022/08/28 06:24:09;;;;;;;20.13;16.67;;;20.60;84.50;;;19.19;100.00;95920.19;4975339;28;20523;-65
2022/08/28 06:26:34;;;;;;;19.30;16.85;;;20.60;84.30;;;19.24;100.00;95924.81;5022722;28;20489;-64
2022/08/28 06:29:04;;;;;;;21.13;16.63;;;20.60;84.20;;;19.28;100.00;95924.06;4974191;28;20045;-65
2022/08/28 06:31:30;;;;;;;20.15;16.75;;;20.70;83.60;;;19.30;100.00;95931.81;5008466;28;20034;-64
2022/08/28 06:33:57;;;;;;;18.88;16.85;;;20.70;83.50;;;19.30;100.00;95923.81;4993320;28;20452;-64
2022/08/28 06:36:24;;;;;;;19.00;16.42;;;20.60;83.00;;;19.31;100.00;95927.28;5008823;28;20037;-64
2022/08/28 06:38:50;;;;;;;21.65;16.92;;;20.60;83.10;;;19.30;100.00;95928.34;5017311;28;20057;-64
2022/08/28 06:41:15;;;;;;;22.48;17.27;;;20.60;83.10;;;19.27;100.00;95933.09;4991185;28;20043;-64
2022/08/28 06:43:41;;;;;;;19.58;17.40;;;20.50;83.50;;;19.25;100.00;95937.88;5019728;28;20065;-64
2022/08/28 06:46:07;;;;;;;20.38;18.05;;;20.60;83.20;;;19.21;100.00;95943.94;5024486;28;20049;-64
2022/08/28 06:48:33;;;;;;;22.08;18.27;;;20.40;83.20;;;19.18;100.00;95945.22;5018157;28;20106;-64
2022/08/28 06:50:59;;;;;;;20.75;18.50;;;20.40;83.50;;;19.16;100.00;95941.22;5019909;28;20236;-64
2022/08/28 06:53:27;;;;;;;21.90;17.70;;;20.40;83.90;;;19.12;100.00;95943.56;5025089;28;20026;-64
2022/08/28 06:56:08;;;;;;;21.40;18.38;;;20.30;84.00;;;19.10;100.00;95942.19;5007231;28;20037;-71
2022/08/28 06:58:36;;;;;;;21.05;18.45;;;20.20;84.00;;;19.06;100.00;95943.75;5011592;28;20030;-70
2022/08/28 07:01:11;;;;;;;22.20;18.65;;;20.30;84.30;;;19.03;100.00;95947.72;5018685;28;20113;-70
2022/08/28 07:03:38;;;;;;;22.10;17.98;;;20.20;84.10;;;19.02;100.00;95953.28;5010042;28;20034;-70
2022/08/28 07:06:05;;;;;;;23.17;17.85;;;20.30;83.90;;;18.99;100.00;95951.91;5018910;28;20026;-68
2022/08/28 07:08:31;;;;;;;22.23;18.42;;;20.20;84.20;;;18.99;100.00;95957.22;4975278;28;20025;-72
2022/08/28 07:10:57;;;;;;;21.30;17.88;;;20.30;84.30;;;19.00;100.00;95958.03;5003156;28;20619;-70
2022/08/28 07:13:23;;;;;;;19.55;16.88;;;20.40;84.30;;;19.01;100.00;95959.66;4975919;28;20029;-66
2022/08/28 07:15:48;;;;;;;19.85;17.10;;;20.30;84.20;;;19.02;100.00;95961.28;4991664;28;20023;-71
2022/08/28 07:18:14;;;;;;;18.95;16.40;;;20.40;84.10;;;19.05;100.00;95958.94;5022955;28;20168;-71
2022/08/28 07:20:40;;;;;;;17.98;16.08;;;20.40;83.70;;;19.06;100.00;95957.88;5020528;28;20377;-66
2022/08/28 07:23:06;;;;;;;20.33;16.83;;;20.50;83.60;;;19.10;100.00;95963.53;5028476;28;20127;-65
2022/08/28 07:25:32;;;;;;;19.30;16.48;;;20.50;83.80;;;19.13;100.00;95966.50;5027921;28;20025;-64
2022/08/28 07:27:59;;;;;;;20.02;16.50;;;20.50;83.40;;;19.17;100.00;95964.16;5010666;28;20038;-67
2022/08/28 07:30:24;;;;;;;19.05;15.63;;;20.60;83.50;;;19.20;100.00;95966.31;5012334;28;20034;-66
2022/08/28 07:32:50;;;;;;;17.58;15.35;;;20.60;83.40;;;19.27;100.00;95961.63;5023557;28;20080;-70
2022/08/28 07:35:16;;;;;;;20.98;17.20;;;20.70;83.60;;;19.32;100.00;95969.69;5025433;28;20382;-70
2022/08/28 07:37:43;;;;;;;18.13;15.13;;;20.70;83.30;;;19.37;100.00;95969.75;5010491;28;20133;-68
2022/08/28 07:40:10;;;;;;;17.83;15.18;;;20.90;83.00;;;19.41;100.00;95970.88;5010598;28;20034;-69
2022/08/28 07:45:20;;;;;;;20.38;15.85;;;21.00;82.60;;;19.51;100.00;95981.69;5013390;28;20033;-64
2022/08/28 07:47:46;;;;;;;17.75;15.40;;;20.90;82.60;;;19.55;100.00;95976.69;4999072;28;20041;-70
2022/08/28 07:50:13;;;;;;;18.02;15.35;;;21.00;82.40;;;19.57;100.00;95980.72;5003678;28;20065;-70
2022/08/28 07:52:39;;;;;;;16.00;14.30;;;21.10;82.40;;;19.64;100.00;95977.03;5005427;28;20040;-70
2022/08/28 07:55:07;;;;;;;16.02;14.27;;;21.10;82.10;;;19.72;100.00;95981.97;4997083;28;20038;-66
2022/08/28 07:57:33;;;;;;;18.00;14.95;;;21.30;82.10;;;19.79;100.00;95978.03;5019609;28;20505;-65
2022/08/28 07:59:59;;;;;;;16.90;15.02;;;21.50;81.40;;;19.87;100.00;95980.25;5014833;28;20180;-70
2022/08/28 08:02:25;;;;;;;16.75;15.00;;;21.60;81.50;;;19.97;100.00;95984.91;5012535;28;20087;-69
2022/08/28 08:04:51;;;;;;;16.20;14.50;;;21.60;81.10;;;20.07;100.00;95987.69;5023489;28;20030;-69
2022/08/28 08:07:18;;;;;;;15.60;13.95;;;21.70;80.50;;;20.16;100.00;95985.38;5011755;28;20049;-69
2022/08/28 08:09:45;;;;;;;17.23;14.98;;;21.80;80.10;;;20.24;100.00;95986.78;4989056;28;20126;-67
2022/08/28 08:12:11;;;;;;;18.77;15.00;;;21.90;79.80;;;20.33;100.00;95987.94;5002123;28;20582;-66
2022/08/28 08:14:38;;;;;;;17.40;14.95;;;22.00;79.60;;;20.38;100.00;95986.13;5008457;28;20049;-67
2022/08/28 08:17:07;;;;;;;17.90;15.57;;;22.00;79.90;;;20.43;100.00;95983.53;5027304;28;20433;-66
2022/08/28 08:19:33;;;;;;;16.88;14.93;;;22.10;79.50;;;20.48;100.00;95988.13;5012864;28;20044;-66
2022/08/28 08:22:00;;;;;;;16.33;14.50;;;22.10;79.40;;;20.53;100.00;95990.81;4986885;28;20045;-66
2022/08/28 08:24:27;;;;;;;17.85;14.60;;;22.10;79.30;;;20.59;100.00;95995.16;5030821;28;20041;-67
2022/08/28 08:26:54;;;;;;;17.38;15.02;;;22.20;79.10;;;20.64;100.00;95995.22;4992228;28;20038;-67
2022/08/28 08:29:20;;;;;;;17.25;14.80;;;22.20;78.90;;;20.66;100.00;95990.41;5004290;28;20034;-67
2022/08/28 08:31:52;;;;;;;17.38;15.20;;;22.10;79.00;;;20.63;100.00;95998.13;5012460;28;20034;-67
2022/08/28 08:34:18;;;;;;;17.95;16.02;;;22.00;79.30;;;20.59;100.00;95997.81;4979947;28;20042;-66
2022/08/28 08:36:44;;;;;;;17.88;15.98;;;21.90;79.30;;;20.55;100.00;95996.72;5011134;28;20089;-67
2022/08/28 08:39:09;;;;;;;18.17;16.23;;;21.80;79.20;;;20.52;100.00;95999.09;4987831;28;20045;-67
2022/08/28 08:41:46;;;;;;;21.40;16.50;;;21.80;79.70;;;20.51;100.00;95995.63;5028953;28;20033;-67
2022/08/28 08:44:41;;;;;;;18.52;16.50;;;21.90;79.80;;;20.49;100.00;96009.22;4996787;28;20048;-69
2022/08/28 08:47:27;;;;;;;17.33;15.63;;;21.80;79.50;;;20.45;100.00;96018.00;5028041;28;20041;-68
2022/08/28 08:49:53;;;;;;;17.33;15.52;;;21.80;80.00;;;20.39;100.00;96019.00;5021154;28;20034;-70
2022/08/28 08:52:45;;;;;;;18.38;15.75;;;21.70;79.80;;;20.37;100.00;96016.59;5025566;28;20049;-69
2022/08/28 08:55:30;;;;;;;18.92;15.88;;;21.70;79.90;;;20.32;100.00;96019.19;5026424;28;20042;-71
2022/08/28 08:57:56;;;;;;;18.90;16.95;;;21.60;80.10;;;20.29;100.00;96013.53;5007348;28;20045;-71
2022/08/28 09:00:22;;;;;;;17.85;15.95;;;21.60;80.40;;;20.28;100.00;96018.06;5026070;28;20030;-70
2022/08/28 09:02:58;;;;;;;17.55;15.85;;;21.70;80.40;;;20.28;100.00;96022.63;5027700;28;20040;-70
2022/08/28 09:06:02;;;;;;;21.15;17.00;;;21.70;80.40;;;20.31;100.00;96030.13;5003902;28;20034;-70
2022/08/28 09:08:39;;;;;;;18.25;16.38;;;21.70;80.60;;;20.35;100.00;96028.56;5010742;28;20033;-65
2022/08/28 09:11:25;;;;;;;19.95;17.83;;;21.80;79.60;;;20.36;100.00;96030.16;5021113;28;20040;-66
2022/08/28 09:14:19;;;;;;;22.98;17.40;;;21.90;79.80;;;20.39;100.00;96029.69;5029750;28;20034;-66
2022/08/28 09:16:45;;;;;;;20.70;18.60;;;21.90;79.40;;;20.41;100.00;96035.63;4999100;28;20520;-64
2022/08/28 09:19:17;;;;;;;20.33;18.20;;;21.90;79.50;;;20.45;100.00;96034.84;4961563;28;20121;-64
2022/08/28 09:21:43;;;;;;;19.02;17.13;;;21.90;78.90;;;20.46;100.00;96041.81;4997784;28;20033;-64
2022/08/28 09:24:31;;;;;;;21.35;18.67;;;21.90;78.90;;;20.50;100.00;96044.78;4997938;28;20041;-64
2022/08/28 09:27:08;;;;;;;21.20;18.77;;;21.90;79.00;;;20.50;100.00;96042.09;5006264;28;20034;-64
2022/08/28 09:29:39;;;;;;;20.48;18.33;;;22.00;78.70;;;20.50;100.00;96042.09;5025522;28;20046;-64
2022/08/28 09:32:29;;;;;;;;;;;22.00;78.30;;;20.54;100.00;96050.41;5022499;28;20148;-69
2022/08/28 09:35:10;;;;;;;20.35;18.35;;;22.00;78.20;;;20.56;100.00;96046.44;5025334;28;19917;-71
2022/08/28 09:37:36;;;;;;;20.65;18.45;;;22.10;79.00;;;20.62;100.00;96047.31;5022232;28;20037;-69
2022/08/28 09:43:27;;;;;;;;;;;22.30;78.80;;;20.73;100.00;96040.97;5024093;28;20552;-69
2022/08/28 09:46:20;;;;;;;20.40;18.23;;;22.30;77.60;;;20.77;100.00;96048.22;5008179;28;20303;-69
2022/08/28 09:48:47;;;;;;;18.70;16.83;;;22.40;77.90;;;20.81;100.00;96040.50;5022104;28;20497;-71
2022/08/28 09:51:28;;;;;;;19.10;17.10;;;22.40;77.90;;;20.86;100.00;96032.53;5017707;28;20038;-70
2022/08/28 09:54:09;;;;;;;17.52;15.80;;;22.50;77.30;;;20.92;100.00;96038.72;5024267;28;20108;-70
2022/08/28 09:56:38;;;;;;;;;;;22.50;76.50;;;20.94;100.00;96039.28;4999570;28;20050;-69
2022/08/28 09:59:17;;;;;;;16.85;15.15;;;22.60;76.30;;;21.00;100.00;96040.94;5024273;28;19966;-70
2022/08/28 10:01:47;;;;;;;16.70;15.00;;;22.60;77.00;;;21.07;100.00;96038.88;4973362;28;20050;-71
2022/08/28 10:04:16;;;;;;;14.77;13.23;;;22.70;76.60;;;21.11;100.00;96037.28;5025984;28;20584;-70
2022/08/28 10:07:14;;;;;;;15.98;13.68;;;22.80;76.60;;;21.19;100.00;96038.66;5032086;28;20029;-70
2022/08/28 10:10:17;;;;;;;18.30;13.85;;;22.90;75.90;;;21.26;100.00;96047.28;4988005;28;20042;-70
2022/08/28 10:13:09;;;;;;;14.32;12.82;;;22.90;75.60;;;21.31;100.00;96047.34;5022472;28;20064;-69
2022/08/28 10:16:08;;;;;;;16.08;12.35;;;22.80;75.20;;;21.38;100.00;96048.72;5004828;28;20033;-72
2022/08/28 10:18:56;;;;;;;13.70;11.88;;;23.00;75.40;;;21.44;100.00;96054.09;5009203;28;20034;-71
2022/08/28 10:21:39;;;;;;;15.30;12.15;;;23.10;74.20;;;21.47;100.00;96050.91;5007649;28;20523;-71
2022/08/28 10:24:35;;;;;;;13.07;11.30;;;23.10;73.50;;;21.52;100.00;96053.63;4989785;28;20037;-70
2022/08/28 10:27:27;;;;;;;14.60;11.77;;;23.10;73.60;;;;;;5019477;28;20437;-70